createdAt,value
2023-04-18T00:01:50.456Z,10.53
2023-04-18T00:04:18.280Z,11.00
2023-04-18T00:06:47.178Z,11.10
2023-04-18T00:09:14.215Z,11.57
2023-04-18T00:11:41.268Z,11.27
2023-04-18T00:14:08.538Z,11.83
2023-04-18T00:16:36.254Z,11.77
2023-04-18T00:19:04.737Z,12.10
2023-04-18T00:21:32.070Z,12.20
2023-04-18T00:23:58.936Z,10.50
2023-04-18T00:26:27.035Z,11.67
2023-04-18T00:28:54.200Z,11.63
2023-04-18T00:31:21.074Z,12.13
2023-04-18T00:33:47.987Z,11.80
2023-04-18T00:36:15.566Z,12.60
2023-04-18T00:38:42.332Z,12.13
2023-04-18T00:41:09.370Z,13.23
2023-04-18T00:43:37.118Z,10.93
2023-04-18T00:46:04.038Z,11.17
2023-04-18T00:48:31.419Z,12.73
2023-04-18T00:51:00.196Z,11.90
2023-04-18T00:53:28.072Z,10.80
2023-04-18T00:55:55.193Z,11.13
2023-04-18T00:58:22.369Z,12.20
2023-04-18T01:00:49.168Z,12.20
2023-04-18T01:03:18.243Z,13.20
2023-04-18T01:05:46.864Z,11.03
2023-04-18T01:08:14.172Z,11.67
2023-04-18T01:10:41.325Z,11.60
2023-04-18T01:13:19.400Z,11.20
2023-04-18T01:15:50.673Z,12.73
2023-04-18T01:18:18.177Z,12.27
2023-04-18T01:20:48.496Z,10.70
2023-04-18T01:23:16.751Z,11.40
2023-04-18T01:25:44.383Z,11.83
2023-04-18T01:28:13.924Z,12.77
2023-04-18T01:30:41.097Z,12.13
2023-04-18T01:33:07.853Z,12.27
2023-04-18T01:35:34.863Z,13.17
2023-04-18T01:38:01.731Z,11.60
2023-04-18T01:40:29.901Z,13.00
2023-04-18T01:42:56.806Z,12.00
2023-04-18T01:45:23.941Z,12.80
2023-04-18T01:47:50.716Z,11.93
2023-04-18T01:50:17.425Z,11.93
2023-04-18T01:52:44.646Z,13.27
2023-04-18T01:55:11.527Z,13.37
2023-04-18T01:57:38.773Z,13.17
2023-04-18T02:00:06.578Z,12.40
2023-04-18T02:02:41.398Z,12.53
2023-04-18T02:05:08.959Z,13.70
2023-04-18T02:07:38.602Z,12.27
2023-04-18T02:10:05.944Z,12.93
2023-04-18T02:12:32.711Z,13.47
2023-04-18T02:14:59.889Z,14.20
2023-04-18T02:17:26.648Z,13.60
2023-04-18T02:19:54.704Z,12.27
2023-04-18T02:22:21.772Z,12.07
2023-04-18T02:24:48.438Z,12.97
2023-04-18T02:27:15.460Z,12.80
2023-04-18T02:29:42.124Z,12.00
2023-04-18T02:32:09.122Z,12.17
2023-04-18T02:34:37.333Z,12.97
2023-04-18T02:37:04.504Z,12.00
2023-04-18T02:39:32.377Z,12.23
2023-04-18T02:41:59.198Z,12.27
2023-04-18T02:44:25.933Z,12.30
2023-04-18T02:46:52.921Z,13.03
2023-04-18T02:49:20.004Z,12.90
2023-04-18T02:51:47.792Z,13.53
2023-04-18T02:54:15.950Z,13.33
2023-04-18T02:56:54.901Z,13.50
2023-04-18T02:59:39.848Z,12.57
2023-04-18T03:02:41.771Z,13.20
2023-04-18T03:05:23.603Z,13.13
2023-04-18T03:07:51.941Z,12.57
2023-04-18T03:10:19.333Z,12.83
2023-04-18T03:12:47.647Z,11.83
2023-04-18T03:15:16.874Z,13.30
2023-04-18T03:17:43.910Z,11.90
2023-04-18T03:20:12.866Z,13.47
2023-04-18T03:22:40.271Z,13.33
2023-04-18T03:25:07.735Z,13.23
2023-04-18T03:27:44.397Z,13.43
2023-04-18T03:30:13.832Z,12.87
2023-04-18T03:32:42.526Z,12.30
2023-04-18T03:35:09.790Z,13.67
2023-04-18T03:37:36.990Z,13.80
2023-04-18T03:40:05.694Z,12.63
2023-04-18T03:42:32.561Z,12.70
2023-04-18T03:44:59.357Z,12.23
2023-04-18T03:47:26.392Z,14.10
2023-04-18T03:49:56.893Z,13.30
2023-04-18T03:52:26.073Z,13.00
2023-04-18T03:54:53.827Z,13.70
2023-04-18T03:57:25.015Z,12.80
2023-04-18T03:59:51.899Z,12.80
2023-04-18T04:02:18.909Z,13.37
2023-04-18T04:04:46.885Z,12.50
2023-04-18T04:07:13.899Z,12.90
2023-04-18T04:09:40.724Z,13.33
2023-04-18T04:12:07.821Z,13.73
2023-04-18T04:14:35.607Z,13.40
2023-04-18T04:17:02.892Z,13.77
2023-04-18T04:19:31.059Z,14.20
2023-04-18T04:22:07.590Z,13.43
2023-04-18T04:24:35.390Z,13.50
2023-04-18T04:27:03.657Z,12.87
2023-04-18T04:29:31.338Z,13.07
2023-04-18T04:31:59.640Z,12.60
2023-04-18T04:34:34.461Z,14.10
2023-04-18T04:37:03.819Z,14.10
2023-04-18T04:39:34.331Z,13.53
2023-04-18T04:42:25.187Z,14.17
2023-04-18T04:44:59.454Z,14.83
2023-04-18T04:47:26.304Z,14.10
2023-04-18T04:49:54.303Z,14.97
2023-04-18T04:52:21.088Z,14.43
2023-04-18T04:54:48.242Z,13.60
2023-04-18T04:57:17.659Z,12.93
2023-04-18T04:59:44.809Z,12.03
2023-04-18T05:02:12.015Z,13.80
2023-04-18T05:04:39.251Z,14.37
2023-04-18T05:07:06.070Z,13.53
2023-04-18T05:09:32.779Z,12.97
2023-04-18T05:11:59.595Z,12.40
2023-04-18T05:14:26.571Z,13.20
2023-04-18T05:16:53.351Z,12.43
2023-04-18T05:19:20.185Z,12.33
2023-04-18T05:21:46.909Z,13.23
2023-04-18T05:24:14.262Z,13.83
2023-04-18T05:26:41.611Z,13.83
2023-04-18T05:29:08.333Z,13.37
2023-04-18T05:31:35.223Z,12.77
2023-04-18T05:34:01.954Z,13.80
2023-04-18T05:36:28.782Z,12.50
2023-04-18T05:38:55.518Z,13.50
2023-04-18T05:41:22.951Z,13.47
2023-04-18T05:43:58.105Z,13.10
2023-04-18T05:46:32.204Z,12.50
2023-04-18T05:48:59.103Z,12.67
2023-04-18T05:51:26.751Z,13.03
2023-04-18T05:53:54.232Z,12.97
2023-04-18T05:56:21.085Z,11.80
2023-04-18T05:58:47.869Z,11.80
2023-04-18T06:01:14.672Z,12.13
2023-04-18T06:03:41.618Z,12.97
2023-04-18T06:06:08.951Z,11.90
2023-04-18T06:08:35.872Z,11.90
2023-04-18T06:11:02.768Z,11.33
2023-04-18T06:13:29.647Z,12.27
2023-04-18T06:15:56.551Z,11.87
2023-04-18T06:18:23.411Z,13.07
2023-04-18T06:20:50.390Z,11.63
2023-04-18T06:23:17.129Z,11.97
2023-04-18T06:25:44.221Z,11.87
2023-04-18T06:28:10.936Z,13.20
2023-04-18T06:30:37.828Z,13.17
2023-04-18T06:33:05.046Z,11.50
2023-04-18T06:35:32.007Z,14.10
2023-04-18T06:37:59.578Z,13.37
2023-04-18T06:40:26.455Z,13.80
2023-04-18T06:42:53.230Z,15.67
2023-04-18T06:45:20.227Z,13.50
2023-04-18T06:47:47.784Z,15.27
2023-04-18T06:50:15.545Z,13.70
2023-04-18T06:52:45.486Z,13.70
2023-04-18T06:55:14.829Z,12.30
2023-04-18T06:57:42.500Z,14.03
2023-04-18T07:00:10.460Z,12.63
2023-04-18T07:02:38.486Z,13.47
2023-04-18T07:05:06.338Z,10.87
2023-04-18T07:07:33.996Z,10.63
2023-04-18T07:10:01.323Z,11.60
2023-04-18T07:12:28.093Z,11.50
2023-04-18T07:14:55.402Z,10.60
2023-04-18T07:17:22.230Z,10.63
2023-04-18T07:19:49.170Z,10.37
2023-04-18T07:22:16.038Z,10.37
2023-04-18T07:24:44.301Z,9.30
2023-04-18T07:27:11.015Z,11.00
2023-04-18T07:29:37.982Z,10.50
2023-04-18T07:32:06.204Z,9.30
2023-04-18T07:34:36.172Z,10.67
2023-04-18T07:37:03.172Z,8.23
2023-04-18T07:39:31.841Z,10.43
2023-04-18T07:41:58.918Z,9.60
2023-04-18T07:44:26.129Z,10.97
2023-04-18T07:46:53.125Z,8.57
2023-04-18T07:49:19.896Z,9.50
2023-04-18T07:51:46.602Z,10.47
2023-04-18T07:54:13.491Z,9.20
2023-04-18T07:56:41.047Z,8.90
2023-04-18T07:59:07.749Z,8.93
2023-04-18T08:01:34.631Z,8.57
2023-04-18T08:04:02.166Z,7.90
2023-04-18T08:06:29.628Z,7.90
2023-04-18T08:08:57.364Z,8.20
2023-04-18T08:11:24.087Z,7.30
2023-04-18T08:13:50.973Z,7.93
2023-04-18T08:16:18.087Z,8.20
2023-04-18T08:18:44.942Z,8.13
2023-04-18T08:21:11.739Z,8.70
2023-04-18T08:23:38.726Z,8.27
2023-04-18T08:26:05.526Z,8.17
2023-04-18T08:28:32.386Z,7.57
2023-04-18T08:30:59.162Z,8.60
2023-04-18T08:33:26.335Z,7.03
2023-04-18T08:35:53.135Z,7.77
2023-04-18T08:38:20.620Z,7.83
2023-04-18T08:40:47.690Z,7.50
2023-04-18T08:43:15.945Z,7.90
2023-04-18T08:45:44.226Z,6.87
2023-04-18T08:48:15.341Z,6.73
2023-04-18T08:50:42.800Z,8.10
2023-04-18T08:53:09.904Z,6.60
2023-04-18T08:55:36.988Z,7.07
2023-04-18T08:58:06.752Z,5.80
2023-04-18T09:00:34.317Z,6.93
2023-04-18T09:03:03.000Z,6.50
2023-04-18T09:05:29.950Z,6.50
2023-04-18T09:07:56.894Z,6.10
2023-04-18T09:10:32.558Z,5.40
2023-04-18T09:13:01.242Z,6.53
2023-04-18T09:15:29.180Z,6.10
2023-04-18T09:18:02.779Z,6.20
2023-04-18T09:20:38.203Z,7.00
2023-04-18T09:23:16.377Z,5.93
2023-04-18T09:25:48.138Z,5.70
2023-04-18T09:28:33.888Z,5.37
2023-04-18T09:31:11.894Z,5.67
2023-04-18T09:33:43.243Z,5.40
2023-04-18T09:36:18.958Z,6.00
2023-04-18T09:38:46.659Z,5.37
2023-04-18T09:41:15.907Z,5.97
2023-04-18T09:43:46.733Z,6.60
2023-04-18T09:46:14.655Z,6.57
2023-04-18T09:48:41.825Z,6.40
2023-04-18T09:51:11.574Z,6.30
2023-04-18T09:53:44.629Z,6.20
2023-04-18T09:56:28.283Z,6.80
2023-04-18T09:59:11.667Z,6.10
2023-04-18T10:01:40.249Z,6.10
2023-04-18T10:04:07.941Z,6.20
2023-04-18T10:06:38.782Z,5.80
2023-04-18T10:09:08.294Z,6.10
2023-04-18T10:11:36.056Z,6.80
2023-04-18T10:14:11.953Z,6.20
2023-04-18T10:16:39.726Z,5.73
2023-04-18T10:19:26.556Z,5.77
2023-04-18T10:21:59.343Z,5.70
2023-04-18T10:24:53.031Z,5.63
2023-04-18T10:27:48.914Z,6.00
2023-04-18T10:30:18.861Z,6.40
2023-04-18T10:32:46.742Z,6.47
2023-04-18T10:35:13.661Z,6.57
2023-04-18T10:37:58.927Z,6.80
2023-04-18T10:40:34.054Z,6.73
2023-04-18T10:43:01.250Z,7.00
2023-04-18T10:45:30.916Z,6.53
2023-04-18T10:48:29.450Z,6.10
2023-04-18T10:51:16.207Z,7.50
2023-04-18T10:53:56.325Z,7.50
2023-04-18T10:56:23.935Z,6.07
2023-04-18T10:58:52.926Z,6.60
2023-04-18T11:01:32.761Z,7.00
2023-04-18T11:04:00.916Z,7.43
2023-04-18T11:06:28.328Z,7.33
2023-04-18T11:09:14.256Z,6.97
2023-04-18T11:11:41.715Z,7.60
2023-04-18T11:14:08.951Z,7.20
2023-04-18T11:16:36.327Z,6.70
2023-04-18T11:19:23.410Z,6.33
2023-04-18T11:21:51.252Z,7.53
2023-04-18T11:24:23.105Z,7.07
2023-04-18T11:26:50.575Z,7.67
2023-04-18T11:29:18.217Z,6.50
2023-04-18T11:31:55.276Z,7.20
2023-04-18T11:34:30.393Z,6.60
2023-04-18T11:36:57.697Z,6.50
2023-04-18T11:39:24.685Z,7.30
2023-04-18T11:41:52.155Z,7.10
2023-04-18T11:44:24.181Z,7.50
2023-04-18T11:46:51.695Z,6.60
2023-04-18T11:49:25.347Z,7.43
2023-04-18T11:51:53.521Z,6.90
2023-04-18T11:54:39.708Z,6.40
2023-04-18T11:57:07.526Z,6.97
2023-04-18T11:59:34.460Z,6.60
2023-04-18T12:02:15.481Z,7.93
2023-04-18T12:05:00.259Z,7.67
2023-04-18T12:07:45.867Z,8.03
2023-04-18T12:10:21.893Z,7.93
2023-04-18T12:12:49.884Z,7.33
2023-04-18T12:15:17.783Z,6.90
2023-04-18T12:17:46.034Z,7.13
2023-04-18T12:20:13.561Z,7.30
2023-04-18T12:22:42.542Z,6.03
2023-04-18T12:25:24.395Z,6.10
2023-04-18T12:28:15.044Z,6.10
2023-04-18T12:30:42.266Z,6.27
2023-04-18T12:33:09.225Z,6.70
2023-04-18T12:35:36.108Z,6.87
2023-04-18T12:38:03.326Z,7.03
2023-04-18T12:40:30.312Z,6.63
2023-04-18T12:42:57.211Z,5.67
2023-04-18T12:45:27.040Z,6.70
2023-04-18T12:47:53.864Z,6.43
2023-04-18T12:50:22.858Z,6.00
2023-04-18T12:52:51.295Z,6.50
2023-04-18T12:55:18.278Z,6.10
2023-04-18T12:57:45.350Z,6.43
2023-04-18T13:00:13.567Z,6.43
2023-04-18T13:02:45.157Z,6.40
2023-04-18T13:05:14.075Z,5.90
2023-04-18T13:07:42.991Z,5.60
2023-04-18T13:10:18.520Z,5.77
2023-04-18T13:12:46.478Z,6.20
2023-04-18T13:15:13.509Z,5.33
2023-04-18T13:17:40.903Z,6.10
2023-04-18T13:20:18.441Z,6.10
2023-04-18T13:22:45.553Z,5.70
2023-04-18T13:25:12.695Z,5.50
2023-04-18T13:27:41.977Z,5.70
2023-04-18T13:30:10.994Z,5.13
2023-04-18T13:32:39.154Z,5.17
2023-04-18T13:35:08.334Z,5.20
2023-04-18T13:37:35.575Z,5.03
2023-04-18T13:40:05.642Z,5.60
2023-04-18T13:42:37.065Z,4.90
2023-04-18T13:45:04.447Z,5.23
2023-04-18T13:47:31.382Z,5.17
2023-04-18T13:49:58.409Z,4.63
2023-04-18T13:52:26.076Z,5.13
2023-04-18T13:54:53.132Z,5.97
2023-04-18T13:57:20.134Z,4.83
2023-04-18T13:59:46.987Z,4.40
2023-04-18T14:02:14.303Z,4.53
2023-04-18T14:04:41.447Z,4.33
2023-04-18T14:07:09.158Z,4.43
2023-04-18T14:09:35.987Z,4.60
2023-04-18T14:12:02.845Z,4.10
2023-04-18T14:14:29.795Z,3.80
2023-04-18T14:16:56.833Z,4.40
2023-04-18T14:19:23.875Z,4.30
2023-04-18T14:21:50.810Z,5.07
2023-04-18T14:24:17.602Z,4.60
2023-04-18T14:26:44.372Z,4.50
2023-04-18T14:29:11.408Z,4.27
2023-04-18T14:31:38.499Z,4.57
2023-04-18T14:34:06.028Z,4.00
2023-04-18T14:36:32.862Z,4.53
2023-04-18T14:38:59.685Z,5.73
2023-04-18T14:41:26.836Z,4.37
2023-04-18T14:43:53.641Z,5.30
2023-04-18T14:46:21.207Z,4.90
2023-04-18T14:48:48.085Z,4.80
2023-04-18T14:51:16.382Z,5.40
2023-04-18T14:53:43.820Z,4.73
2023-04-18T14:56:10.716Z,5.50
2023-04-18T14:58:37.536Z,5.40
2023-04-18T15:01:04.627Z,6.23
2023-04-18T15:03:32.036Z,4.77
2023-04-18T15:05:58.954Z,5.30
2023-04-18T15:08:25.917Z,5.53
2023-04-18T15:10:52.680Z,5.83
2023-04-18T15:13:19.593Z,5.77
2023-04-18T15:15:56.769Z,6.70
2023-04-18T15:18:24.086Z,6.17
2023-04-18T15:20:51.543Z,5.40
2023-04-18T15:23:18.390Z,5.30
2023-04-18T15:25:45.809Z,5.87
2023-04-18T15:28:14.216Z,6.70
2023-04-18T15:30:40.985Z,7.47
2023-04-18T15:33:08.689Z,6.77
2023-04-18T15:35:36.083Z,6.37
2023-04-18T15:38:03.433Z,7.23
2023-04-18T15:40:32.839Z,6.10
2023-04-18T15:42:59.764Z,6.83
2023-04-18T15:45:26.538Z,7.17
2023-04-18T15:47:53.513Z,7.13
2023-04-18T15:50:20.762Z,6.50
2023-04-18T15:52:47.606Z,7.20
2023-04-18T15:55:14.395Z,7.40
2023-04-18T15:57:41.952Z,6.80
2023-04-18T16:00:20.812Z,7.93
2023-04-18T16:02:47.711Z,6.40
2023-04-18T16:05:15.456Z,6.87
2023-04-18T16:07:43.157Z,6.10
2023-04-18T16:10:11.288Z,6.00
2023-04-18T16:12:39.545Z,6.50
2023-04-18T16:15:08.719Z,9.00
2023-04-18T16:17:36.776Z,8.60
2023-04-18T16:20:04.356Z,10.10
2023-04-18T16:22:31.196Z,8.73
2023-04-18T16:24:57.909Z,7.97
2023-04-18T16:27:24.694Z,7.77
2023-04-18T16:29:51.397Z,7.83
2023-04-18T16:32:18.071Z,7.57
2023-04-18T16:34:44.855Z,7.87
2023-04-18T16:37:12.225Z,9.00
2023-04-18T16:39:39.338Z,10.03
2023-04-18T16:42:06.173Z,9.50
2023-04-18T16:44:33.221Z,10.90
2023-04-18T16:47:00.136Z,8.50
2023-04-18T16:49:27.064Z,9.50
2023-04-18T16:51:53.826Z,10.07
2023-04-18T16:54:20.634Z,9.50
2023-04-18T16:56:47.493Z,9.50
2023-04-18T16:59:14.721Z,10.73
2023-04-18T17:01:41.504Z,10.20
2023-04-18T17:04:08.395Z,9.17
2023-04-18T17:06:35.358Z,10.17
2023-04-18T17:09:02.061Z,10.77
2023-04-18T17:11:28.850Z,9.40
2023-04-18T17:13:56.486Z,9.93
2023-04-18T17:16:23.348Z,10.50
2023-04-18T17:18:50.153Z,10.43
2023-04-18T17:21:17.018Z,10.63
2023-04-18T17:23:43.845Z,11.10
2023-04-18T17:26:10.565Z,10.77
2023-04-18T17:28:37.539Z,11.33
2023-04-18T17:31:04.843Z,10.70
2023-04-18T17:33:31.761Z,11.40
2023-04-18T17:35:58.755Z,10.73
2023-04-18T17:38:25.659Z,11.20
2023-04-18T17:41:02.939Z,10.43
2023-04-18T17:43:29.677Z,11.50
2023-04-18T17:45:59.957Z,10.37
2023-04-18T17:48:27.239Z,10.87
2023-04-18T17:50:53.973Z,12.13
2023-04-18T17:53:20.845Z,12.47
2023-04-18T17:55:50.443Z,11.03
2023-04-18T17:58:17.222Z,11.20
2023-04-18T18:00:44.109Z,11.40
2023-04-18T18:03:14.034Z,10.60
2023-04-18T18:05:42.111Z,11.40
2023-04-18T18:08:08.946Z,11.20
2023-04-18T18:10:35.750Z,11.23
2023-04-18T18:13:02.602Z,11.73
2023-04-18T18:15:30.066Z,11.97
2023-04-18T18:17:57.293Z,12.10
2023-04-18T18:20:24.493Z,13.40
2023-04-18T18:22:54.158Z,13.07
2023-04-18T18:25:21.422Z,12.50
2023-04-18T18:27:48.175Z,12.70
2023-04-18T18:30:15.179Z,12.90
2023-04-18T18:32:41.982Z,14.07
2023-04-18T18:35:09.185Z,13.70
2023-04-18T18:37:36.035Z,13.23
2023-04-18T18:40:07.358Z,12.50
2023-04-18T18:42:34.662Z,14.23
2023-04-18T18:45:02.074Z,12.30
2023-04-18T18:47:30.513Z,12.40
2023-04-18T18:49:57.667Z,12.63
2023-04-18T18:52:24.805Z,13.03
2023-04-18T18:54:51.628Z,12.00
2023-04-18T18:57:18.563Z,12.70
2023-04-18T18:59:45.620Z,12.10
2023-04-18T19:02:12.558Z,11.80
2023-04-18T19:04:39.617Z,11.87
2023-04-18T19:07:07.209Z,10.93
2023-04-18T19:09:34.348Z,10.83
2023-04-18T19:12:01.212Z,9.30
2023-04-18T19:14:27.926Z,9.50
2023-04-18T19:16:55.839Z,9.37
2023-04-18T19:19:22.538Z,9.67
2023-04-18T19:21:50.110Z,8.67
2023-04-18T19:24:17.532Z,8.40
2023-04-18T19:26:44.444Z,9.20
2023-04-18T19:29:13.994Z,8.13
2023-04-18T19:31:43.541Z,9.13
2023-04-18T19:34:11.757Z,8.80
2023-04-18T19:36:38.621Z,8.20
2023-04-18T19:39:05.634Z,7.80
2023-04-18T19:41:32.381Z,7.27
2023-04-18T19:43:59.239Z,8.90
2023-04-18T19:46:26.233Z,8.10
2023-04-18T19:48:53.132Z,6.63
2023-04-18T19:51:19.839Z,7.20
2023-04-18T19:53:46.684Z,7.57
2023-04-18T19:56:14.873Z,7.70
2023-04-18T19:58:46.623Z,8.60
2023-04-18T20:01:15.566Z,7.83
2023-04-18T20:03:42.927Z,8.03
2023-04-18T20:06:10.457Z,7.33
2023-04-18T20:08:41.400Z,8.07
2023-04-18T20:11:12.079Z,7.33
2023-04-18T20:13:38.794Z,7.20
2023-04-18T20:16:07.418Z,7.57
2023-04-18T20:18:36.164Z,8.03
2023-04-18T20:21:03.782Z,8.17
2023-04-18T20:23:30.995Z,7.87
2023-04-18T20:25:57.798Z,7.63
2023-04-18T20:28:24.691Z,7.63
2023-04-18T20:30:51.721Z,7.17
2023-04-18T20:33:19.018Z,8.07
2023-04-18T20:35:46.762Z,7.40
2023-04-18T20:38:14.801Z,6.87
2023-04-18T20:40:45.244Z,6.40
2023-04-18T20:43:13.450Z,6.67
2023-04-18T20:45:43.019Z,6.77
2023-04-18T20:48:10.163Z,6.70
2023-04-18T20:50:37.027Z,5.60
2023-04-18T20:53:04.048Z,6.23
2023-04-18T20:55:30.950Z,7.03
2023-04-18T20:57:58.645Z,5.83
2023-04-18T21:00:25.581Z,7.00
2023-04-18T21:02:52.492Z,7.17
2023-04-18T21:05:19.334Z,6.37
2023-04-18T21:07:46.078Z,6.30
2023-04-18T21:10:13.153Z,6.07
2023-04-18T21:12:39.885Z,6.40
2023-04-18T21:15:07.465Z,6.13
2023-04-18T21:17:34.317Z,6.70
2023-04-18T21:20:01.138Z,5.87
2023-04-18T21:22:27.878Z,6.70
2023-04-18T21:24:54.958Z,7.30
2023-04-18T21:27:21.712Z,7.00
2023-04-18T21:29:48.827Z,6.40
2023-04-18T21:32:15.627Z,6.93
2023-04-18T21:34:42.725Z,6.57
2023-04-18T21:37:10.697Z,7.13
2023-04-18T21:39:38.294Z,6.50
2023-04-18T21:42:05.238Z,5.80
2023-04-18T21:44:31.991Z,7.00
2023-04-18T21:46:58.799Z,6.80
2023-04-18T21:49:25.633Z,5.60
2023-04-18T21:51:52.410Z,6.13
2023-04-18T21:54:19.167Z,7.63
2023-04-18T21:56:45.959Z,5.70
2023-04-18T21:59:12.678Z,5.80
2023-04-18T22:01:39.710Z,6.00
2023-04-18T22:04:06.804Z,6.30
2023-04-18T22:06:33.642Z,6.47
2023-04-18T22:09:01.088Z,5.60
2023-04-18T22:11:28.533Z,6.20
2023-04-18T22:13:58.061Z,5.83
2023-04-18T22:16:25.063Z,6.80
2023-04-18T22:18:51.992Z,5.97
2023-04-18T22:21:18.772Z,5.67
2023-04-18T22:23:45.691Z,6.67
2023-04-18T22:26:12.533Z,6.67
2023-04-18T22:28:39.663Z,6.20
2023-04-18T22:31:06.464Z,6.40
2023-04-18T22:33:33.199Z,6.10
2023-04-18T22:36:00.445Z,6.53
2023-04-18T22:38:27.250Z,6.53
2023-04-18T22:40:54.183Z,7.20
2023-04-18T22:43:23.596Z,6.20
2023-04-18T22:45:50.887Z,6.87
2023-04-18T22:48:18.089Z,6.73
2023-04-18T22:50:46.191Z,5.97
2023-04-18T22:53:14.375Z,5.90
2023-04-18T22:55:42.316Z,6.60
2023-04-18T22:58:10.492Z,6.20
2023-04-18T23:00:37.602Z,6.30
2023-04-18T23:03:04.748Z,5.97
2023-04-18T23:05:31.711Z,5.20
2023-04-18T23:08:00.229Z,6.37
2023-04-18T23:10:27.456Z,6.27
2023-04-18T23:12:54.476Z,6.23
2023-04-18T23:15:22.738Z,5.83
2023-04-18T23:17:52.982Z,5.90
2023-04-18T23:20:20.486Z,6.20
2023-04-18T23:22:50.003Z,5.23
2023-04-18T23:25:17.228Z,6.37
2023-04-18T23:27:44.101Z,5.30
2023-04-18T23:30:11.218Z,5.57
2023-04-18T23:32:37.936Z,6.00
2023-04-18T23:35:06.252Z,5.90
2023-04-18T23:37:33.118Z,5.60
2023-04-18T23:40:00.525Z,5.30
2023-04-18T23:42:27.534Z,4.90
2023-04-18T23:44:54.608Z,4.90
2023-04-18T23:47:22.039Z,5.50
2023-04-18T23:49:48.885Z,4.90
2023-04-18T23:52:15.726Z,5.10
2023-04-18T23:54:42.493Z,5.37
2023-04-18T23:57:09.217Z,5.37
2023-04-18T23:59:36.388Z,5.63
